Time;durP1;ratioP1;P1;durP2;ratioP2;P2;SDS_P1;SDS_P2;PMS_P1;PMS_P2;Temp;Humidity;BMP_temperature;BMP_pressure;BME280_temperature;BME280_humidity;BME280_pressure;Samples;Min_cycle;Max_cycle;Signal;HPM_P1;HPM_P2
2023/09/10 00:00:21;;;;;;;27.90;22.15;;;;;;;18.87;100.00;101630.09;5069354;28;20085;-69
2023/09/10 00:02:46;;;;;;;27.73;22.58;;;;;;;18.89;100.00;101636.09;5069481;28;20071;-69
2023/09/10 00:05:11;;;;;;;26.88;21.58;;;;;;;18.87;100.00;101635.50;5069311;28;20052;-69
2023/09/10 00:07:37;;;;;;;30.77;23.15;;;;;;;18.83;100.00;101627.84;5069252;28;20060;-70
2023/09/10 00:10:02;;;;;;;29.38;23.80;;;;;;;18.82;100.00;101633.50;5067899;28;20620;-69
2023/09/10 00:12:28;;;;;;;29.92;23.27;;;;;;;18.85;100.00;101632.22;5069276;28;20036;-69
2023/09/10 00:14:53;;;;;;;26.65;21.15;;;;;;;18.87;100.00;101638.22;5069206;28;21098;-70
2023/09/10 00:17:18;;;;;;;27.73;22.55;;;;;;;18.87;100.00;101638.22;5069242;28;20207;-69
2023/09/10 00:19:44;;;;;;;26.25;22.40;;;;;;;18.83;100.00;101630.56;5069077;28;20083;-69
2023/09/10 00:22:09;;;;;;;28.60;23.67;;;;;;;18.80;100.00;101636.44;5069272;28;20047;-69
2023/09/10 00:24:34;;;;;;;29.10;24.73;;;;;;;18.77;100.00;101636.91;5069056;28;20476;-69
2023/09/10 00:27:01;;;;;;;28.70;24.27;;;;;;;18.73;100.00;101632.16;5069122;28;20036;-69
2023/09/10 00:29:26;;;;;;;36.65;23.45;;;;;;;18.71;100.00;101637.81;5069049;28;20024;-69
2023/09/10 00:31:51;;;;;;;28.02;21.80;;;;;;;18.65;100.00;101629.78;5069231;28;20462;-69
2023/09/10 00:34:17;;;;;;;30.65;24.13;;;;;;;18.70;100.00;101630.72;5050942;28;20123;-69
2023/09/10 00:36:42;;;;;;;29.48;24.98;;;;;;;18.64;100.00;101631.66;5068999;28;20115;-70
2023/09/10 00:39:08;;;;;;;31.08;25.27;;;;;;;18.64;100.00;101636.25;5068626;28;20048;-69
2023/09/10 00:41:34;;;;;;;32.88;23.27;;;;;;;18.60;100.00;101628.63;5068984;28;20118;-69
2023/09/10 00:43:59;;;;;;;30.73;23.50;;;;;;;18.59;100.00;101620.72;5068654;28;20073;-70
2023/09/10 00:46:24;;;;;;;28.85;23.02;;;;;;;18.58;100.00;101619.91;5068740;28;20029;-69
2023/09/10 00:48:50;;;;;;;31.50;23.95;;;;;;;18.59;100.00;101618.03;5068742;28;20039;-70
2023/09/10 00:51:18;;;;;;;28.38;24.45;;;;;;;18.59;100.00;101620.72;5067489;28;20059;-70
2023/09/10 00:53:44;;;;;;;27.95;23.92;;;;;;;18.66;100.00;101621.47;5049483;28;20083;-70
2023/09/10 00:56:11;;;;;;;30.30;27.05;;;;;;;18.63;100.00;101624.63;5068728;28;20085;-70
2023/09/10 00:58:36;;;;;;;30.05;23.35;;;;;;;18.61;100.00;101626.72;5067251;28;20028;-70
2023/09/10 01:01:03;;;;;;;29.27;24.10;;;;;;;18.56;100.00;101623.91;5068696;28;20078;-70
2023/09/10 01:03:30;;;;;;;32.75;27.30;;;;;;;18.51;100.00;101621.06;5072955;28;20029;-70
2023/09/10 01:05:56;;;;;;;32.67;27.83;;;;;;;18.52;100.00;101615.44;5072696;28;20036;-70
2023/09/10 01:08:21;;;;;;;31.65;27.23;;;;;;;18.47;100.00;101604.50;5072818;28;20089;-70
2023/09/10 01:11:12;;;;;;;32.95;26.77;;;;;;;18.59;100.00;101618.84;5072762;28;20036;-70
2023/09/10 01:14:02;;;;;;;31.90;25.80;;;;;;;18.58;100.00;101628.00;5072992;28;20391;-70
2023/09/10 01:16:38;;;;;;;31.52;26.40;;;;;;;18.53;100.00;101625.19;5072590;28;20972;-69
2023/09/10 01:19:14;;;;;;;33.08;28.23;;;;;;;18.49;100.00;101626.69;5072515;28;20035;-69
2023/09/10 01:22:03;;;;;;;34.55;28.35;;;;;;;18.47;100.00;101626.13;5072417;28;20024;-70
2023/09/10 01:24:47;;;;;;;31.63;25.58;;;;;;;18.46;100.00;101623.63;5072413;28;20531;-70
2023/09/10 01:27:14;;;;;;;32.95;25.73;;;;;;;18.42;100.00;101622.44;5072501;28;20052;-70
2023/09/10 01:29:39;;;;;;;33.55;27.15;;;;;;;18.42;100.00;101631.38;5071223;28;20028;-70
2023/09/10 01:32:09;;;;;;;34.22;28.13;;;;;;;18.29;100.00;101609.97;5072075;28;20051;-70
2023/09/10 01:34:41;;;;;;;32.35;26.23;;;;;;;18.36;100.00;101625.00;5072225;28;20032;-69
2023/09/10 01:37:26;;;;;;;30.40;26.98;;;;;;;18.35;100.00;101630.66;5072138;28;20028;-70
2023/09/10 01:39:55;;;;;;;35.03;28.33;;;;;;;18.32;100.00;101625.69;5072041;28;20040;-70
2023/09/10 01:42:23;;;;;;;34.70;28.25;;;;;;;18.28;100.00;101628.03;5072124;28;20472;-70
2023/09/10 01:44:49;;;;;;;35.95;27.92;;;;;;;18.21;100.00;101626.47;5072150;28;20553;-70
2023/09/10 01:47:15;;;;;;;31.42;25.60;;;;;;;18.25;100.00;101633.88;5071927;28;20021;-70
2023/09/10 01:49:41;;;;;;;31.17;25.23;;;;;;;18.24;100.00;101629.53;5071900;28;20158;-70
2023/09/10 01:52:06;;;;;;;30.90;24.65;;;;;;;18.29;100.00;101631.56;5071995;28;20028;-69
2023/09/10 01:54:32;;;;;;;30.98;25.33;;;;;;;18.28;100.00;101627.19;5072190;28;21087;-70
2023/09/10 01:56:57;;;;;;;30.90;24.60;;;;;;;18.22;100.00;101634.34;5071799;28;20380;-70
2023/09/10 01:59:22;;;;;;;30.73;26.52;;;;;;;18.18;100.00;101634.00;5071715;28;20041;-70
2023/09/10 02:01:48;;;;;;;30.83;25.17;;;;;;;18.16;100.00;101627.16;5071645;28;20035;-70
2023/09/10 02:04:13;;;;;;;32.25;24.08;;;;;;;18.14;100.00;101631.97;5071540;28;20119;-69
2023/09/10 02:06:38;;;;;;;31.73;26.65;;;;;;;18.17;100.00;101632.31;5071650;28;20112;-70
2023/09/10 02:09:04;;;;;;;31.23;26.50;;;;;;;18.17;100.00;101634.19;5071558;28;20067;-70
2023/09/10 02:11:29;;;;;;;32.78;26.48;;;;;;;18.19;100.00;101642.91;5071449;28;20064;-70
2023/09/10 02:13:54;;;;;;;35.33;26.85;;;;;;;18.17;100.00;101637.72;5070453;28;20090;-70
2023/09/10 02:16:20;;;;;;;34.33;27.00;;;;;;;18.19;100.00;101637.50;5071431;28;20043;-70
2023/09/10 02:18:46;;;;;;;33.97;28.10;;;;;;;18.20;100.00;101639.13;5071460;28;20066;-70
2023/09/10 02:21:12;;;;;;;35.22;29.67;;;;;;;18.13;100.00;101639.25;5071372;28;20037;-70
2023/09/10 02:23:39;;;;;;;38.90;30.45;;;;;;;18.11;100.00;101644.03;5071469;28;20471;-70
2023/09/10 02:26:04;;;;;;;34.90;28.10;;;;;;;18.13;100.00;101641.09;5071607;28;20480;-70
2023/09/10 02:28:29;;;;;;;36.03;28.17;;;;;;;18.14;100.00;101643.59;5071290;28;20069;-70
2023/09/10 02:30:55;;;;;;;32.05;27.05;;;;;;;18.13;100.00;101641.94;5071093;28;20040;-70
2023/09/10 02:33:20;;;;;;;34.42;28.02;;;;;;;18.14;100.00;101640.06;5069817;28;20094;-70
2023/09/10 02:35:46;;;;;;;35.20;28.00;;;;;;;18.11;100.00;101641.34;5070951;28;20064;-70
2023/09/10 02:38:11;;;;;;;36.38;28.17;;;;;;;18.13;100.00;101639.25;5070909;28;20044;-69
2023/09/10 02:40:36;;;;;;;34.92;28.90;;;;;;;18.09;100.00;101639.91;5071195;28;20120;-70
2023/09/10 02:43:02;;;;;;;32.75;27.88;;;;;;;18.10;100.00;101637.00;5070943;28;20462;-70
2023/09/10 02:45:27;;;;;;;31.42;26.10;;;;;;;18.08;100.00;101638.28;5070990;28;20024;-69
2023/09/10 02:47:52;;;;;;;34.40;30.08;;;;;;;18.09;100.00;101646.13;5070775;28;20372;-69
2023/09/10 02:50:18;;;;;;;33.75;28.63;;;;;;;18.09;100.00;101648.03;5069446;28;20044;-69
2023/09/10 02:52:43;;;;;;;33.72;27.10;;;;;;;18.05;100.00;101638.72;5070788;28;20041;-70
2023/09/10 02:55:08;;;;;;;34.78;29.23;;;;;;;18.08;100.00;101643.69;5069440;28;20103;-69
2023/09/10 02:57:34;;;;;;;37.13;31.25;;;;;;;18.06;100.00;101648.47;5070847;28;20032;-69
2023/09/10 02:59:59;;;;;;;37.80;30.30;;;;;;;18.04;100.00;101653.28;5070708;28;20488;-70
2023/09/10 03:02:25;;;;;;;37.28;30.83;;;;;;;18.02;100.00;101648.09;5070508;28;20043;-70
2023/09/10 03:04:50;;;;;;;37.30;30.42;;;;;;;18.03;100.00;101647.06;5070452;28;20039;-70
2023/09/10 03:07:15;;;;;;;34.75;28.90;;;;;;;18.04;100.00;101648.69;5070556;28;20031;-70
2023/09/10 03:09:41;;;;;;;34.55;29.70;;;;;;;18.05;100.00;101652.22;5070403;28;20030;-70
2023/09/10 03:12:27;;;;;;;38.10;30.02;;;;;;;18.05;100.00;101642.25;5070367;28;20517;-69
2023/09/10 03:14:52;;;;;;;36.83;28.85;;;;;;;18.04;100.00;101647.88;5070318;28;20036;-70
2023/09/10 03:17:18;;;;;;;37.08;29.95;;;;;;;18.04;100.00;101646.00;5070211;28;20036;-70
2023/09/10 03:19:44;;;;;;;37.42;31.13;;;;;;;18.03;100.00;101648.94;5070340;28;20029;-70
2023/09/10 03:22:10;;;;;;;38.33;32.55;;;;;;;17.96;100.00;101638.22;5070301;28;20028;-69
2023/09/10 03:24:36;;;;;;;35.63;30.13;;;;;;;18.00;100.00;101646.66;5070009;28;20070;-70
2023/09/10 03:27:02;;;;;;;36.42;32.15;;;;;;;17.92;100.00;101642.41;5070175;28;20033;-70
2023/09/10 03:29:28;;;;;;;39.63;34.00;;;;;;;17.91;100.00;101635.38;5070025;28;20040;-70
2023/09/10 03:31:53;;;;;;;40.00;34.80;;;;;;;17.90;100.00;101639.13;5069840;28;20107;-70
2023/09/10 03:34:19;;;;;;;41.60;35.33;;;;;;;17.88;100.00;101635.81;5068493;28;20071;-69
2023/09/10 03:36:45;;;;;;;41.40;36.15;;;;;;;17.88;100.00;101630.41;5069770;28;20024;-70
2023/09/10 03:39:10;;;;;;;45.08;37.50;;;;;;;17.87;100.00;101632.31;5050652;28;20499;-70
2023/09/10 03:41:35;;;;;;;42.30;36.67;;;;;;;17.89;100.00;101632.06;5050607;28;20029;-70
2023/09/10 03:44:01;;;;;;;42.67;33.85;;;;;;;17.89;100.00;101635.59;5049446;28;20427;-70
2023/09/10 03:46:26;;;;;;;38.80;32.55;;;;;;;17.83;100.00;101627.56;5050601;28;20043;-70
2023/09/10 03:48:51;;;;;;;37.40;31.15;;;;;;;17.87;100.00;101632.31;5050710;28;20056;-70
2023/09/10 03:51:17;;;;;;;37.47;31.75;;;;;;;17.82;100.00;101624.06;5049087;28;20028;-69
2023/09/10 03:53:42;;;;;;;39.88;34.10;;;;;;;17.90;100.00;101631.03;5050559;28;20040;-70
2023/09/10 03:56:08;;;;;;;38.85;31.27;;;;;;;17.91;100.00;101629.97;5050418;28;20139;-70
2023/09/10 03:58:33;;;;;;;40.58;33.28;;;;;;;17.91;100.00;101627.25;5050560;28;20578;-69
2023/09/10 04:00:59;;;;;;;40.22;32.22;;;;;;;17.92;100.00;101629.75;5069490;28;20032;-70
2023/09/10 04:03:25;;;;;;;39.83;35.53;;;;;;;17.90;100.00;101634.53;5069784;28;20033;-70
2023/09/10 04:05:52;;;;;;;40.85;33.25;;;;;;;17.92;100.00;101626.19;5069383;28;20028;-70
2023/09/10 04:08:17;;;;;;;37.15;30.52;;;;;;;17.89;100.00;101619.41;5069211;28;20037;-70
2023/09/10 04:10:43;;;;;;;37.55;32.63;;;;;;;17.93;100.00;101617.06;5069180;28;20078;-70
2023/09/10 04:13:08;;;;;;;45.47;34.22;;;;;;;17.94;100.00;101624.94;5069529;28;20024;-70
2023/09/10 04:15:33;;;;;;;39.05;33.30;;;;;;;17.96;100.00;101625.53;5069184;28;20060;-70
2023/09/10 04:17:59;;;;;;;39.10;33.78;;;;;;;17.96;100.00;101622.00;5069278;28;20472;-70
2023/09/10 04:20:24;;;;;;;41.53;34.88;;;;;;;17.92;100.00;101613.56;5067952;28;20101;-70
2023/09/10 04:22:49;;;;;;;42.38;35.05;;;;;;;18.01;100.00;101622.16;5069139;28;20040;-69
2023/09/10 04:25:15;;;;;;;42.10;35.85;;;;;;;17.98;100.00;101619.91;5069208;28;20124;-69
2023/09/10 04:27:40;;;;;;;42.08;37.05;;;;;;;17.96;100.00;101614.72;5069166;28;20039;-69
2023/09/10 04:30:07;;;;;;;37.90;33.40;;;;;;;17.98;100.00;101617.22;5067930;28;20036;-69
2023/09/10 04:32:32;;;;;;;43.08;36.63;;;;;;;17.92;100.00;101618.97;5069322;28;20032;-69
2023/09/10 04:34:57;;;;;;;44.85;37.30;;;;;;;17.94;100.00;101614.13;5069106;28;20078;-69
2023/09/10 04:37:23;;;;;;;42.13;34.70;;;;;;;17.92;100.00;101612.72;5068382;28;20029;-69
2023/09/10 04:39:48;;;;;;;47.40;33.75;;;;;;;17.90;100.00;101621.03;5068756;28;20508;-70
2023/09/10 04:42:13;;;;;;;46.17;36.53;;;;;;;17.88;100.00;101611.53;5069035;28;20130;-69
2023/09/10 04:44:39;;;;;;;37.95;33.45;;;;;;;17.85;100.00;101612.00;5068885;28;20060;-69
2023/09/10 04:47:04;;;;;;;40.40;33.25;;;;;;;17.83;100.00;101619.47;5068872;28;20138;-69
2023/09/10 04:49:30;;;;;;;42.33;34.03;;;;;;;17.80;100.00;101620.75;5068878;28;20036;-69
2023/09/10 04:51:55;;;;;;;39.20;33.70;;;;;;;17.82;100.00;101621.34;5068714;28;20491;-69
2023/09/10 04:54:21;;;;;;;42.28;34.17;;;;;;;17.82;100.00;101625.94;5068474;28;20028;-70
2023/09/10 04:56:47;;;;;;;39.30;33.20;;;;;;;17.80;100.00;101620.75;5067343;28;20119;-70
2023/09/10 04:59:13;;;;;;;43.10;37.70;;;;;;;17.79;100.00;101623.63;5068755;28;20380;-70
2023/09/10 05:01:39;;;;;;;43.22;37.05;;;;;;;17.78;100.00;101625.50;5068331;28;20488;-70
2023/09/10 05:04:04;;;;;;;41.30;35.25;;;;;;;17.76;100.00;101619.50;5068188;28;20033;-70
2023/09/10 05:06:30;;;;;;;40.72;33.72;;;;;;;17.78;100.00;101619.28;5067603;28;20033;-70
2023/09/10 05:08:55;;;;;;;43.58;36.20;;;;;;;17.82;100.00;101620.53;5067830;28;20356;-70
2023/09/10 05:11:20;;;;;;;42.20;35.85;;;;;;;17.82;100.00;101623.25;5067718;28;20071;-70
2023/09/10 05:13:46;;;;;;;43.35;36.63;;;;;;;17.84;100.00;101621.97;5068231;28;20119;-70
2023/09/10 05:16:11;;;;;;;49.97;38.67;;;;;;;17.86;100.00;101629.81;5068214;28;20891;-70
2023/09/10 05:18:37;;;;;;;43.55;36.15;;;;;;;17.87;100.00;101626.91;5068543;28;20032;-69
2023/09/10 05:21:02;;;;;;;45.13;37.17;;;;;;;17.89;100.00;101638.31;5068296;28;20060;-70
2023/09/10 05:23:28;;;;;;;41.20;35.22;;;;;;;17.89;100.00;101635.59;5067843;28;20454;-70
2023/09/10 05:25:54;;;;;;;42.65;36.35;;;;;;;17.93;100.00;101638.66;5066994;28;20020;-70
2023/09/10 05:28:20;;;;;;;42.05;36.25;;;;;;;17.93;100.00;101639.47;5066177;28;20115;-70
2023/09/10 05:30:45;;;;;;;41.38;34.53;;;;;;;17.93;100.00;101638.66;5068273;28;20032;-70
2023/09/10 05:33:10;;;;;;;46.88;37.42;;;;;;;17.95;100.00;101641.97;5068133;28;20037;-70
2023/09/10 05:35:36;;;;;;;45.17;37.38;;;;;;;17.94;100.00;101638.41;5067951;28;20093;-70
2023/09/10 05:38:01;;;;;;;50.88;39.80;;;;;;;17.91;100.00;101640.75;5064879;28;20039;-70
2023/09/10 05:40:27;;;;;;;45.20;38.50;;;;;;;17.95;100.00;101640.09;5047788;28;20037;-69
2023/09/10 05:42:52;;;;;;;47.92;40.33;;;;;;;17.98;100.00;101636.13;5049035;28;20119;-70
2023/09/10 05:45:19;;;;;;;47.60;40.42;;;;;;;18.02;100.00;101641.88;5049451;28;20647;-70
2023/09/10 05:47:44;;;;;;;49.67;39.72;;;;;;;18.03;100.00;101646.25;5065565;28;20036;-70
2023/09/10 05:50:10;;;;;;;50.42;42.58;;;;;;;18.04;100.00;101645.19;5067242;28;20036;-69
2023/09/10 05:52:35;;;;;;;47.63;41.40;;;;;;;18.04;100.00;101632.50;5066642;28;20049;-69
2023/09/10 05:55:01;;;;;;;50.22;40.72;;;;;;;18.10;100.00;101644.25;5052612;28;20595;-69
2023/09/10 05:57:26;;;;;;;46.78;40.08;;;;;;;18.12;100.00;101642.97;5064512;28;20032;-69
2023/09/10 05:59:52;;;;;;;51.08;42.28;;;;;;;18.18;100.00;101639.38;5071459;28;20044;-69
2023/09/10 06:02:17;;;;;;;48.85;42.13;;;;;;;18.21;100.00;101645.38;5070151;28;20086;-69
2023/09/10 06:04:42;;;;;;;54.47;44.83;;;;;;;18.30;100.00;101641.31;5071658;28;20027;-69
2023/09/10 06:07:08;;;;;;;57.83;50.50;;;;;;;18.36;100.00;101651.19;5070385;28;20063;-69
2023/09/10 06:09:33;;;;;;;60.58;53.38;;;;;;;18.35;100.00;101647.66;5071459;28;20479;-69
2023/09/10 06:12:00;;;;;;;63.78;54.55;;;;;;;18.40;100.00;101641.59;5071399;28;20670;-69
2023/09/10 06:14:26;;;;;;;69.88;62.08;;;;;;;18.52;100.00;101649.72;5071178;28;20659;-70
2023/09/10 06:16:51;;;;;;;63.90;56.97;;;;;;;18.61;100.00;101656.44;5071619;28;20040;-69
2023/09/10 06:19:16;;;;;;;70.38;61.47;;;;;;;18.67;100.00;101655.53;5071287;28;20083;-69
2023/09/10 06:21:42;;;;;;;70.53;60.45;;;;;;;18.74;100.00;101658.13;5071432;28;20040;-69
2023/09/10 06:24:07;;;;;;;73.32;64.22;;;;;;;18.79;100.00;101656.41;5071295;28;20039;-70
2023/09/10 06:26:33;;;;;;;70.78;61.95;;;;;;;18.89;100.00;101663.13;5071230;28;20028;-69
2023/09/10 06:29:00;;;;;;;72.97;64.82;;;;;;;18.95;100.00;101662.22;5069246;28;20051;-70
2023/09/10 06:31:25;;;;;;;70.38;62.75;;;;;;;19.02;100.00;101660.19;5070849;28;20503;-70
2023/09/10 06:33:50;;;;;;;68.68;59.80;;;;;;;19.08;100.00;101659.28;5070883;28;20037;-70
2023/09/10 06:36:16;;;;;;;62.58;54.03;;;;;;;19.11;100.00;101658.81;5069857;28;20036;-70
2023/09/10 06:38:47;;;;;;;57.92;48.25;;;;;;;19.21;100.00;101669.88;5070553;28;20076;-69
2023/09/10 06:41:14;;;;;;;54.10;48.20;;;;;;;19.27;100.00;101670.81;5071060;28;20127;-70
2023/09/10 06:43:39;;;;;;;55.05;46.03;;;;;;;19.33;100.00;101671.75;5070799;28;20446;-70
2023/09/10 06:46:04;;;;;;;52.15;43.58;;;;;;;19.38;100.00;101667.28;5070881;28;20060;-70
2023/09/10 06:48:30;;;;;;;50.97;44.22;;;;;;;19.47;100.00;101670.47;5070862;28;20403;-69
2023/09/10 06:51:00;;;;;;;54.92;44.28;;;;;;;19.52;100.00;101676.00;5070661;28;20108;-70
2023/09/10 06:53:26;;;;;;;47.60;42.30;;;;;;;19.58;100.00;101669.63;5070658;28;20116;-71
2023/09/10 06:55:51;;;;;;;46.22;40.63;;;;;;;19.67;100.00;101673.66;5070622;28;20051;-71
2023/09/10 06:58:17;;;;;;;50.20;43.60;;;;;;;19.72;100.00;101667.53;5066301;28;20074;-71
2023/09/10 07:00:42;;;;;;;48.72;43.42;;;;;;;19.78;100.00;101671.16;5048464;28;20033;-71
2023/09/10 07:03:08;;;;;;;44.92;39.63;;;;;;;19.88;100.00;101676.78;5049674;28;20033;-71
2023/09/10 07:05:33;;;;;;;49.00;43.30;;;;;;;19.95;100.00;101677.50;5059742;28;20020;-71
2023/09/10 07:07:59;;;;;;;54.85;41.33;;;;;;;20.03;100.00;101685.25;5071951;28;20028;-71
2023/09/10 07:10:24;;;;;;;49.45;40.95;;;;;;;20.08;100.00;101682.63;5059799;28;20031;-71
2023/09/10 07:12:50;;;;;;;47.30;41.17;;;;;;;20.12;100.00;101672.13;5050584;28;20522;-71
2023/09/10 07:15:15;;;;;;;47.30;40.47;;;;;;;20.21;100.00;101675.31;5048392;28;20060;-71
2023/09/10 07:17:40;;;;;;;51.70;44.75;;;;;;;20.29;100.00;101680.34;5049400;28;20031;-70
2023/09/10 07:20:07;;;;;;;55.28;45.05;;;;;;;20.39;100.00;101685.97;5049494;28;20399;-70
2023/09/10 07:22:32;;;;;;;58.97;45.92;;;;;;;20.45;100.00;101687.69;5047852;28;20127;-68
2023/09/10 07:24:57;;;;;;;51.22;43.85;;;;;;;20.51;100.00;101692.16;5051169;28;20578;-71
2023/09/10 07:27:23;;;;;;;47.33;41.17;;;;;;;20.60;100.00;101691.81;5050140;28;20037;-72
2023/09/10 07:29:48;;;;;;;50.88;42.75;;;;;;;20.67;100.00;101685.16;5051476;28;20025;-71
2023/09/10 07:32:14;;;;;;;47.05;41.45;;;;;;;20.75;100.00;101689.34;5069299;28;20033;-71
2023/09/10 07:34:39;;;;;;;52.35;43.53;;;;;;;20.79;100.00;101683.19;5050898;28;20029;-70
2023/09/10 07:37:04;;;;;;;52.85;44.47;;;;;;;20.91;100.00;101683.13;5050688;28;20041;-71
2023/09/10 07:39:30;;;;;;;49.67;44.30;;;;;;;20.96;100.00;101685.13;5050486;28;20053;-70
2023/09/10 07:41:56;;;;;;;51.20;40.95;;;;;;;21.06;100.00;101689.88;5050571;28;20033;-70
2023/09/10 07:44:22;;;;;;;52.35;42.13;;;;;;;21.15;100.00;101693.81;5069554;28;20028;-70
2023/09/10 07:46:47;;;;;;;55.25;41.00;;;;;;;21.23;100.00;101690.69;5068424;28;20053;-71
2023/09/10 07:49:13;;;;;;;50.03;40.72;;;;;;;21.30;100.00;101687.81;5068018;28;20043;-71
2023/09/10 07:51:39;;;;;;;47.45;40.72;;;;;;;21.39;100.00;101689.06;5051387;28;20147;-70
2023/09/10 07:54:04;;;;;;;45.65;40.17;;;;;;;21.50;100.00;101680.00;5065981;28;20029;-70
2023/09/10 07:56:29;;;;;;;47.97;42.35;;;;;;;21.57;100.00;101690.69;5050267;28;20079;-71
2023/09/10 07:58:55;;;;;;;49.72;42.20;;;;;;;21.67;100.00;101693.56;5050214;28;20025;-71
2023/09/10 08:01:20;;;;;;;48.00;42.25;;;;;;;21.77;100.00;101698.28;5050012;28;20032;-71
2023/09/10 08:03:45;;;;;;;44.83;39.78;;;;;;;21.81;100.00;101683.97;5048767;28;20533;-71
2023/09/10 08:06:11;;;;;;;44.50;39.70;;;;;;;21.96;100.00;101693.41;5067896;28;20037;-71
2023/09/10 08:08:36;;;;;;;43.60;38.90;;;;;;;22.09;100.00;101698.44;5064786;28;20103;-70
2023/09/10 08:11:01;;;;;;;47.10;38.67;;;;;;;22.32;100.00;101702.81;5064140;28;20553;-70
2023/09/10 08:13:27;;;;;;;42.10;36.20;;;;;;;22.45;100.00;101701.59;5055895;28;20067;-70
2023/09/10 08:15:52;;;;;;;42.55;36.72;;;;;;;22.51;100.00;101698.69;5049636;28;20051;-71
2023/09/10 08:18:18;;;;;;;43.28;34.92;;;;;;;22.67;100.00;101698.84;5062559;28;20159;-70
2023/09/10 08:20:44;;;;;;;40.97;34.90;;;;;;;22.95;100.00;101706.72;5068759;28;20383;-70
2023/09/10 08:23:10;;;;;;;41.88;34.15;;;;;;;23.55;100.00;101707.47;5068796;28;20383;-70
2023/09/10 08:25:36;;;;;;;41.92;33.40;;;;;;;24.02;100.00;101700.38;5068677;28;20031;-70
2023/09/10 08:28:01;;;;;;;38.72;31.35;;;;;;;24.76;100.00;101699.25;5068792;28;20033;-71
2023/09/10 08:30:27;;;;;;;37.47;29.55;;;;;;;25.32;100.00;101698.44;5061353;28;20052;-71
2023/09/10 08:32:53;;;;;;;31.63;27.95;;;;;;;25.23;99.54;101694.63;5050630;28;20033;-70
2023/09/10 08:35:19;;;;;;;36.33;28.58;;;;;;;24.97;100.00;101691.06;5049032;28;20036;-68
2023/09/10 08:37:45;;;;;;;27.55;21.95;;;;;;;24.79;100.00;101689.69;5049719;28;20116;-69
2023/09/10 08:40:11;;;;;;;27.20;22.75;;;;;;;24.69;98.90;101688.59;5048194;28;20132;-68
2023/09/10 08:42:47;;;;;;;31.63;22.25;;;;;;;24.63;100.00;101686.97;5049289;28;20040;-68
2023/09/10 08:45:13;;;;;;;28.80;20.67;;;;;;;24.60;100.00;101686.66;5047883;28;20102;-68
2023/09/10 08:47:43;;;;;;;29.48;23.95;;;;;;;24.56;100.00;101693.75;5049822;28;20036;-69
2023/09/10 08:50:13;;;;;;;26.40;20.23;;;;;;;24.62;100.00;101689.94;5049102;28;20029;-68
2023/09/10 08:52:41;;;;;;;27.23;20.45;;;;;;;24.66;100.00;101696.50;5049517;28;20035;-68
2023/09/10 08:55:08;;;;;;;26.23;20.95;;;;;;;24.66;100.00;101688.31;5049343;28;20029;-69
2023/09/10 08:57:37;;;;;;;27.73;21.10;;;;;;;24.69;100.00;101693.22;5056093;28;20033;-68
2023/09/10 09:00:07;;;;;;;35.72;24.23;;;;;;;24.76;100.00;101695.69;5049666;28;20020;-68
2023/09/10 09:02:32;;;;;;;31.75;20.20;;;;;;;24.81;100.00;101692.94;5047848;28;21170;-68
2023/09/10 09:04:58;;;;;;;28.33;22.52;;;;;;;24.86;100.00;101695.69;5049883;28;20033;-71
2023/09/10 09:07:31;;;;;;;26.90;22.27;;;;;;;24.91;100.00;101691.03;5049601;28;20037;-70
2023/09/10 09:10:00;;;;;;;26.33;20.73;;;;;;;24.95;100.00;101685.06;5048980;28;20036;-71
2023/09/10 09:12:27;;;;;;;29.27;23.30;;;;;;;25.06;100.00;101689.44;5049510;28;20491;-71
2023/09/10 09:14:54;;;;;;;29.73;18.83;;;;;;;25.21;100.00;101689.44;5048723;28;20017;-70
2023/09/10 09:17:20;;;;;;;26.02;17.65;;;;;;;25.30;100.00;101686.97;5049069;28;20036;-69
2023/09/10 09:19:48;;;;;;;27.35;19.67;;;;;;;25.39;99.79;101687.22;5048939;28;20033;-71
2023/09/10 09:22:17;;;;;;;25.58;18.17;;;;;;;25.43;100.00;101677.41;5048047;28;20021;-71
2023/09/10 09:24:43;;;;;;;27.02;20.15;;;;;;;25.52;100.00;101678.47;5052528;28;20078;-71
2023/09/10 09:27:10;;;;;;;22.63;16.33;;;;;;;25.71;100.00;101675.97;5053194;28;20412;-69
2023/09/10 09:29:37;;;;;;;23.17;15.75;;;;;;;25.80;100.00;101685.19;5052465;28;20187;-70
2023/09/10 09:32:02;;;;;;;22.83;15.80;;;;;;;25.89;94.71;101683.56;5050410;28;20488;-70
2023/09/10 09:34:27;;;;;;;24.50;17.30;;;;;;;25.93;96.01;101681.91;5052630;28;20032;-70
2023/09/10 09:36:53;;;;;;;23.02;16.02;;;;;;;25.95;96.26;101679.72;5052476;28;20036;-69
2023/09/10 09:39:20;;;;;;;20.95;14.73;;;;;;;26.05;95.82;101675.31;5052662;28;21015;-70
2023/09/10 09:41:53;;;;;;;23.30;15.60;;;;;;;26.19;96.17;101685.34;5052402;28;20099;-70
2023/09/10 09:44:19;;;;;;;20.13;13.40;;;;;;;26.33;94.82;101673.75;5052462;28;20644;-70
2023/09/10 09:46:48;;;;;;;24.67;14.25;;;;;;;26.35;92.83;101679.78;5052515;28;20373;-70
2023/09/10 09:49:13;;;;;;;22.17;14.07;;;;;;;26.49;93.01;101682.69;5052395;28;20016;-69
2023/09/10 09:51:42;;;;;;;21.60;13.20;;;;;;;26.55;93.54;101671.47;5051814;28;20501;-71
2023/09/10 09:54:08;;;;;;;20.02;13.13;;;;;;;26.67;94.08;101668.38;5053739;28;20433;-71
2023/09/10 09:56:36;;;;;;;21.92;13.88;;;;;;;26.75;95.37;101669.69;5052464;28;20068;-70
2023/09/10 09:59:02;;;;;;;23.90;14.02;;;;;;;26.79;93.76;101659.81;5052135;28;20562;-70
2023/09/10 10:01:28;;;;;;;21.52;14.23;;;;;;;26.87;92.71;101667.41;5049921;28;20033;-72
2023/09/10 10:03:55;;;;;;;20.95;14.25;;;;;;;26.84;93.49;101668.78;5051844;28;20245;-71
2023/09/10 10:06:22;;;;;;;21.95;13.50;;;;;;;26.98;93.41;101663.47;5051890;28;20025;-72
2023/09/10 10:08:49;;;;;;;21.90;12.98;;;;;;;27.08;92.15;101657.06;5053108;28;20028;-71
2023/09/10 10:11:35;;;;;;;20.77;11.32;;;;;;;27.24;92.62;101664.06;5050328;28;20108;-70
2023/09/10 10:14:03;;;;;;;17.10;10.23;;;;;;;27.29;89.99;101657.72;5051663;28;20072;-70
2023/09/10 10:16:29;;;;;;;23.17;11.98;;;;;;;27.38;88.15;101658.72;5052036;28;20414;-69
2023/09/10 10:18:55;;;;;;;18.48;10.90;;;;;;;27.44;87.23;101657.56;5051860;28;20671;-70
2023/09/10 10:21:24;;;;;;;20.15;12.05;;;;;;;27.57;87.45;101661.53;5050080;28;20079;-68
2023/09/10 10:23:56;;;;;;;18.23;11.52;;;;;;;27.58;91.32;101656.84;5051653;28;20029;-71
2023/09/10 10:26:22;;;;;;;23.58;12.80;;;;;;;27.62;85.43;101653.25;5070718;28;20514;-71
2023/09/10 10:28:49;;;;;;;18.05;11.57;;;;;;;27.64;88.32;101653.78;5054289;28;20045;-72
2023/09/10 10:31:21;;;;;;;17.30;10.88;;;;;;;27.77;87.38;101654.97;5051274;28;20020;-71
2023/09/10 10:33:59;;;;;;;17.13;10.93;;;;;;;27.88;85.76;101648.31;5069840;28;20086;-71
2023/09/10 10:36:57;;;;;;;18.67;11.20;;;;;;;27.96;86.56;101650.38;5071087;28;20499;-71
2023/09/10 10:39:33;;;;;;;17.98;10.55;;;;;;;28.00;85.15;101636.88;5064053;28;20493;-72
2023/09/10 10:42:00;;;;;;;16.70;11.18;;;;;;;28.09;83.88;101634.31;5058812;28;20115;-72
2023/09/10 10:44:32;;;;;;;15.10;9.82;;;;;;;28.15;85.15;101636.69;5054003;28;20025;-71
2023/09/10 10:47:20;;;;;;;14.02;10.15;;;;;;;28.26;85.82;101639.28;5070000;28;20059;-71
2023/09/10 10:49:53;;;;;;;14.80;10.10;;;;;;;28.29;83.48;101636.75;5070386;28;20025;-72
2023/09/10 10:52:28;;;;;;;13.73;9.52;;;;;;;28.33;85.23;101629.56;5069146;28;20105;-71
2023/09/10 10:54:54;;;;;;;15.00;9.20;;;;;;;28.30;81.51;101635.63;5070687;28;20052;-71
2023/09/10 10:57:22;;;;;;;15.73;9.07;;;;;;;28.30;82.75;101630.16;5070490;28;20553;-71
2023/09/10 10:59:48;;;;;;;12.85;8.07;;;;;;;28.33;81.53;101626.00;5069914;28;20036;-71